createdAt,value
2017-10-16T00:00:52.730Z,62.63
2017-10-16T00:03:20.582Z,62.91
2017-10-16T00:05:48.343Z,62.78
2017-10-16T00:08:15.864Z,62.40
2017-10-16T00:10:43.384Z,62.00
2017-10-16T00:13:11.243Z,62.23
2017-10-16T00:15:38.803Z,62.38
2017-10-16T00:18:06.363Z,62.58
2017-10-16T00:20:35.262Z,62.56
2017-10-16T00:23:02.795Z,63.39
2017-10-16T00:25:30.419Z,63.84
2017-10-16T00:27:57.984Z,63.98
2017-10-16T00:30:25.535Z,64.16
2017-10-16T00:32:53.082Z,64.76
2017-10-16T00:35:20.710Z,64.14
2017-10-16T00:37:48.240Z,64.38
2017-10-16T00:40:15.768Z,64.57
2017-10-16T00:42:43.387Z,64.17
2017-10-16T00:45:10.919Z,63.64
2017-10-16T00:47:38.448Z,63.49
2017-10-16T00:50:06.283Z,63.58
2017-10-16T00:52:33.843Z,63.72
2017-10-16T00:55:01.385Z,63.38
2017-10-16T00:57:28.994Z,63.75
2017-10-16T00:59:56.611Z,63.99
2017-10-16T01:02:24.166Z,63.83
2017-10-16T01:04:51.939Z,63.89
2017-10-16T01:07:19.491Z,64.39
2017-10-16T01:09:47.057Z,64.48
2017-10-16T01:12:14.795Z,64.39
2017-10-16T01:14:42.373Z,64.31
2017-10-16T01:17:09.930Z,65.10
2017-10-16T01:19:37.883Z,65.47
2017-10-16T01:22:05.460Z,65.59
2017-10-16T01:24:33.020Z,65.58
2017-10-16T01:27:00.683Z,65.33
2017-10-16T01:29:28.216Z,65.28
2017-10-16T01:31:55.749Z,64.87
2017-10-16T01:34:23.356Z,65.31
2017-10-16T01:36:50.948Z,65.18
2017-10-16T01:39:18.499Z,65.16
2017-10-16T01:41:46.075Z,65.87
2017-10-16T01:44:13.611Z,65.82
2017-10-16T01:46:41.153Z,65.51
2017-10-16T01:49:09.104Z,65.90
2017-10-16T01:51:36.681Z,66.06
2017-10-16T01:54:04.239Z,66.22
2017-10-16T01:56:31.928Z,66.52
2017-10-16T01:58:59.457Z,66.27
2017-10-16T02:01:26.992Z,66.47
2017-10-16T02:03:54.578Z,66.55
2017-10-16T02:06:22.110Z,66.06
2017-10-16T02:08:49.635Z,65.64
2017-10-16T02:11:17.256Z,66.01
2017-10-16T02:13:44.783Z,66.33
2017-10-16T02:16:12.324Z,66.51
2017-10-16T02:18:40.015Z,66.79
2017-10-16T02:21:07.539Z,66.25
2017-10-16T02:23:35.100Z,66.41
2017-10-16T02:26:02.918Z,66.65
2017-10-16T02:28:30.486Z,66.35
2017-10-16T02:30:58.035Z,67.09
2017-10-16T02:33:25.809Z,67.35
2017-10-16T02:35:53.358Z,68.09
2017-10-16T02:38:20.918Z,67.04
2017-10-16T02:40:48.664Z,66.93
2017-10-16T02:43:16.235Z,66.31
2017-10-16T02:45:43.800Z,66.53
2017-10-16T02:48:11.461Z,66.32
2017-10-16T02:50:38.985Z,65.48
2017-10-16T02:53:06.582Z,65.96
2017-10-16T02:55:34.324Z,65.87
2017-10-16T02:58:01.940Z,65.39
2017-10-16T03:00:29.479Z,65.90
2017-10-16T03:02:57.063Z,66.35
2017-10-16T03:05:24.600Z,66.09
2017-10-16T03:07:52.131Z,65.86
2017-10-16T03:10:19.806Z,65.54
2017-10-16T03:12:47.340Z,65.77
2017-10-16T03:15:14.879Z,66.60
2017-10-16T03:17:42.581Z,65.93
2017-10-16T03:20:10.106Z,65.83
2017-10-16T03:22:37.640Z,66.00
2017-10-16T03:25:05.361Z,65.77
2017-10-16T03:27:32.919Z,66.24
2017-10-16T03:30:00.580Z,66.65
2017-10-16T03:32:28.159Z,66.84
2017-10-16T03:34:55.802Z,66.93
2017-10-16T03:37:23.361Z,66.68
2017-10-16T03:39:51.329Z,67.42
2017-10-16T03:42:18.860Z,67.36
2017-10-16T03:44:46.394Z,67.15
2017-10-16T03:47:14.199Z,66.82
2017-10-16T03:49:41.719Z,66.60
2017-10-16T03:52:09.264Z,66.61
2017-10-16T03:54:36.823Z,67.13
2017-10-16T03:57:04.355Z,67.81
2017-10-16T03:59:31.904Z,67.55
2017-10-16T04:01:59.655Z,68.06
2017-10-16T04:04:27.197Z,67.30
2017-10-16T04:06:54.788Z,66.99
2017-10-16T04:09:22.560Z,67.64
2017-10-16T04:11:50.110Z,67.26
2017-10-16T04:14:17.669Z,67.04
2017-10-16T04:16:45.320Z,67.00
2017-10-16T04:19:12.847Z,67.25
2017-10-16T04:21:40.371Z,67.31
2017-10-16T04:24:08.104Z,68.17
2017-10-16T04:26:35.669Z,67.73
2017-10-16T04:29:03.228Z,67.73
2017-10-16T04:31:31.007Z,67.47
2017-10-16T04:33:58.536Z,67.25
2017-10-16T04:36:26.063Z,65.95
2017-10-16T04:38:53.771Z,65.61
2017-10-16T04:41:21.332Z,65.84
2017-10-16T04:43:48.890Z,66.09
2017-10-16T04:46:16.567Z,65.83
2017-10-16T04:48:44.134Z,65.18
2017-10-16T04:51:11.716Z,64.46
2017-10-16T04:53:39.567Z,63.89
2017-10-16T04:56:07.188Z,64.50
2017-10-16T04:58:34.772Z,65.08
2017-10-16T05:01:02.473Z,65.24
2017-10-16T05:03:30.140Z,65.41
2017-10-16T05:05:57.834Z,64.89
2017-10-16T05:08:25.665Z,65.05
2017-10-16T05:10:53.264Z,65.46
2017-10-16T05:13:20.820Z,65.59
2017-10-16T05:15:48.668Z,65.41
2017-10-16T05:18:16.208Z,65.85
2017-10-16T05:20:43.743Z,66.01
2017-10-16T05:23:11.532Z,66.28
2017-10-16T05:25:39.069Z,66.27
2017-10-16T05:28:06.621Z,66.69
2017-10-16T05:30:34.475Z,67.52
2017-10-16T05:33:02.031Z,66.56
2017-10-16T05:35:29.595Z,67.02
2017-10-16T05:37:57.459Z,66.93
2017-10-16T05:40:25.105Z,67.36
2017-10-16T05:42:52.655Z,68.96
2017-10-16T05:45:20.615Z,68.83
2017-10-16T05:47:48.143Z,69.76
2017-10-16T05:50:15.700Z,69.65
2017-10-16T05:52:43.400Z,69.75
2017-10-16T05:55:11.016Z,69.52
2017-10-16T05:57:38.563Z,69.55
2017-10-16T06:00:06.407Z,69.03
2017-10-16T06:02:34.004Z,68.56
2017-10-16T06:05:01.563Z,68.50
2017-10-16T06:07:29.270Z,68.42
2017-10-16T06:09:56.839Z,68.01
2017-10-16T06:12:24.382Z,68.46
2017-10-16T06:14:51.990Z,69.30
2017-10-16T06:17:19.546Z,69.24
2017-10-16T06:19:47.079Z,69.12
2017-10-16T06:22:14.951Z,69.02
2017-10-16T06:24:42.501Z,69.05
2017-10-16T06:27:10.061Z,67.94
2017-10-16T06:29:37.751Z,68.11
2017-10-16T06:32:05.346Z,68.21
2017-10-16T06:34:32.871Z,67.61
2017-10-16T06:37:00.639Z,66.78
2017-10-16T06:39:28.176Z,66.92
2017-10-16T06:41:55.716Z,66.79
2017-10-16T06:44:23.397Z,66.42
2017-10-16T06:46:51.008Z,65.83
2017-10-16T06:49:18.603Z,65.30
2017-10-16T06:51:46.474Z,65.05
2017-10-16T06:54:14.312Z,64.24
2017-10-16T06:56:41.897Z,64.01
2017-10-16T06:59:09.552Z,63.35
2017-10-16T07:01:37.122Z,62.75
2017-10-16T07:04:04.768Z,62.84
2017-10-16T07:06:32.443Z,62.77
2017-10-16T07:09:00.034Z,63.28
2017-10-16T07:11:27.591Z,63.59
2017-10-16T07:13:55.362Z,63.13
2017-10-16T07:16:22.903Z,62.83
2017-10-16T07:18:50.456Z,62.36
2017-10-16T07:21:18.437Z,62.36
2017-10-16T07:23:45.964Z,61.96
2017-10-16T07:26:13.524Z,62.62
2017-10-16T07:28:41.270Z,62.15
2017-10-16T07:31:08.804Z,62.35
2017-10-16T07:33:36.338Z,61.57
2017-10-16T07:36:04.364Z,61.98
2017-10-16T07:38:31.950Z,61.66
2017-10-16T07:40:59.621Z,61.64
2017-10-16T07:43:27.259Z,60.92
2017-10-16T07:45:54.851Z,60.64
2017-10-16T07:48:22.433Z,60.68
2017-10-16T07:50:50.269Z,59.69
2017-10-16T07:53:17.837Z,60.48
2017-10-16T07:55:45.391Z,59.93
2017-10-16T07:58:13.127Z,58.94
2017-10-16T08:00:40.690Z,58.01
2017-10-16T08:03:08.329Z,57.07
2017-10-16T08:05:36.040Z,55.91
2017-10-16T08:08:03.786Z,55.20
2017-10-16T08:10:31.328Z,55.10
2017-10-16T08:12:59.098Z,53.98
2017-10-16T08:15:26.683Z,52.89
2017-10-16T08:17:54.223Z,52.68
2017-10-16T08:20:21.987Z,53.06
2017-10-16T08:22:49.536Z,51.79
2017-10-16T08:25:17.097Z,50.73
2017-10-16T08:27:44.994Z,50.18
2017-10-16T08:30:12.524Z,50.05
2017-10-16T08:32:40.126Z,49.99
2017-10-16T08:35:07.972Z,49.59
2017-10-16T08:37:35.646Z,48.74
2017-10-16T08:40:03.171Z,47.60
2017-10-16T08:42:31.456Z,48.33
2017-10-16T08:44:59.008Z,47.14
2017-10-16T08:47:26.548Z,46.97
2017-10-16T08:49:54.403Z,45.76
2017-10-16T08:52:23.165Z,45.20
2017-10-16T08:54:52.517Z,45.06
2017-10-16T08:57:20.322Z,45.16
2017-10-16T08:59:48.174Z,44.85
2017-10-16T09:02:15.868Z,44.20
2017-10-16T09:04:45.010Z,43.37
2017-10-16T09:07:12.953Z,42.65
2017-10-16T09:09:40.763Z,40.81
2017-10-16T09:12:08.865Z,34.13
2017-10-16T09:14:36.983Z,28.21
2017-10-16T09:17:04.655Z,23.98
2017-10-16T09:19:32.628Z,22.04
2017-10-16T09:22:00.695Z,21.61
2017-10-16T09:24:30.292Z,20.31
2017-10-16T09:26:59.061Z,19.99
2017-10-16T09:29:26.844Z,19.35
2017-10-16T09:31:54.410Z,18.20
2017-10-16T09:34:23.397Z,17.24
2017-10-16T09:36:51.385Z,16.81
2017-10-16T09:39:19.848Z,15.59
2017-10-16T09:41:50.197Z,16.93
2017-10-16T09:44:18.140Z,15.41
2017-10-16T09:46:47.192Z,15.08
2017-10-16T09:49:15.107Z,14.14
2017-10-16T09:51:53.213Z,14.57
2017-10-16T09:54:21.290Z,14.40
2017-10-16T09:56:48.940Z,13.47
2017-10-16T09:59:16.892Z,13.19
2017-10-16T10:01:44.811Z,13.43
2017-10-16T10:04:12.546Z,12.82
2017-10-16T10:06:41.082Z,12.08
2017-10-16T10:09:09.909Z,9.67
2017-10-16T10:11:37.775Z,10.46
2017-10-16T10:14:05.541Z,11.12
2017-10-16T10:16:34.032Z,10.20
2017-10-16T10:19:01.808Z,9.70
2017-10-16T10:21:29.469Z,9.75
2017-10-16T10:23:57.419Z,10.07
2017-10-16T10:26:25.178Z,10.30
2017-10-16T10:28:53.052Z,9.47
2017-10-16T10:31:21.855Z,9.67
2017-10-16T10:33:50.046Z,9.22
2017-10-16T10:36:17.884Z,8.61
2017-10-16T10:38:45.771Z,8.58
2017-10-16T10:41:15.142Z,8.71
2017-10-16T10:43:42.803Z,8.36
2017-10-16T10:46:11.022Z,8.11
2017-10-16T10:48:38.588Z,7.14
2017-10-16T10:51:06.375Z,7.66
2017-10-16T10:53:36.523Z,9.75
2017-10-16T10:56:04.236Z,7.32
2017-10-16T10:58:31.826Z,5.94
2017-10-16T11:01:00.020Z,6.72
2017-10-16T11:03:28.089Z,6.43
2017-10-16T11:05:55.877Z,7.89
2017-10-16T11:08:23.729Z,7.50
2017-10-16T11:10:51.564Z,7.33
2017-10-16T11:13:19.349Z,5.19
2017-10-16T11:15:47.634Z,5.49
2017-10-16T11:18:15.595Z,6.61
2017-10-16T11:20:43.361Z,5.92
2017-10-16T11:23:12.046Z,5.62
2017-10-16T11:25:41.035Z,6.29
2017-10-16T11:28:09.723Z,6.04
2017-10-16T11:30:37.697Z,6.45
2017-10-16T11:33:05.430Z,6.32
2017-10-16T11:35:34.902Z,5.88
2017-10-16T11:38:02.941Z,4.71
2017-10-16T11:40:30.451Z,4.48
2017-10-16T11:42:59.230Z,4.51
2017-10-16T11:45:27.450Z,4.46
2017-10-16T11:47:55.521Z,4.41
2017-10-16T11:50:25.908Z,4.94
2017-10-16T11:52:55.684Z,4.43
2017-10-16T11:55:25.090Z,4.17
2017-10-16T11:57:53.825Z,4.18
2017-10-16T12:00:23.342Z,6.03
2017-10-16T12:02:51.674Z,5.63
2017-10-16T12:05:19.559Z,4.60
2017-10-16T12:07:47.465Z,4.79
2017-10-16T12:10:15.305Z,7.34
2017-10-16T12:12:43.291Z,9.88
2017-10-16T12:15:11.984Z,12.83
2017-10-16T12:17:39.850Z,15.26
2017-10-16T12:20:08.121Z,16.66
2017-10-16T12:22:35.711Z,20.84
2017-10-16T12:25:03.275Z,22.54
2017-10-16T12:27:31.458Z,24.21
2017-10-16T12:29:58.994Z,24.66
2017-10-16T12:32:26.850Z,25.46
2017-10-16T12:34:55.065Z,25.64
2017-10-16T12:37:25.171Z,26.52
2017-10-16T12:39:52.907Z,28.68
2017-10-16T12:42:20.972Z,29.35
2017-10-16T12:44:49.659Z,30.16
2017-10-16T12:47:17.326Z,30.54
2017-10-16T12:49:45.220Z,29.92
2017-10-16T12:52:12.799Z,29.63
2017-10-16T12:54:40.715Z,30.02
2017-10-16T12:57:08.394Z,30.70
2017-10-16T12:59:36.100Z,31.64
2017-10-16T13:02:03.801Z,31.14
2017-10-16T13:04:31.770Z,31.53
2017-10-16T13:07:00.252Z,32.04
2017-10-16T13:09:28.014Z,32.41
2017-10-16T13:11:56.297Z,32.58
2017-10-16T13:14:23.971Z,32.88
2017-10-16T13:16:52.239Z,32.45
2017-10-16T13:19:20.404Z,31.54
2017-10-16T13:21:48.206Z,31.35
2017-10-16T13:24:17.775Z,31.62
2017-10-16T13:26:46.059Z,31.40
2017-10-16T13:29:13.611Z,31.93
2017-10-16T13:31:41.208Z,32.18
2017-10-16T13:34:09.891Z,31.44
2017-10-16T13:36:37.956Z,30.94
2017-10-16T13:39:07.346Z,31.26
2017-10-16T13:41:35.289Z,31.37
2017-10-16T13:44:02.943Z,31.28
2017-10-16T13:46:30.722Z,31.51
2017-10-16T13:48:58.908Z,32.29
2017-10-16T13:51:26.457Z,31.11
2017-10-16T13:53:54.117Z,31.68
2017-10-16T13:56:21.814Z,31.49
2017-10-16T13:58:51.268Z,30.91
2017-10-16T14:01:18.942Z,30.84
2017-10-16T14:03:47.118Z,31.04
2017-10-16T14:06:14.904Z,30.24
2017-10-16T14:08:42.988Z,30.70
2017-10-16T14:11:11.713Z,30.68
2017-10-16T14:13:39.743Z,30.58
2017-10-16T14:16:07.883Z,30.62
2017-10-16T14:18:36.669Z,30.70
2017-10-16T14:21:05.355Z,31.08
2017-10-16T14:23:34.044Z,31.43
2017-10-16T14:26:02.125Z,31.50
2017-10-16T14:28:29.655Z,31.54
2017-10-16T14:30:57.183Z,31.74
2017-10-16T14:33:25.018Z,31.44
2017-10-16T14:35:52.560Z,31.73
2017-10-16T14:38:20.522Z,32.35
2017-10-16T14:40:48.261Z,32.30
2017-10-16T14:43:15.780Z,31.82
2017-10-16T14:45:43.319Z,31.64
2017-10-16T14:48:10.879Z,31.08
2017-10-16T14:50:38.454Z,30.76
2017-10-16T14:53:06.049Z,31.47
2017-10-16T14:55:33.641Z,31.70
2017-10-16T14:58:01.200Z,32.17
2017-10-16T15:00:28.963Z,32.08
2017-10-16T15:02:56.544Z,31.82
2017-10-16T15:05:24.212Z,31.92
2017-10-16T15:07:51.754Z,32.04
2017-10-16T15:10:19.508Z,32.75
2017-10-16T15:12:47.068Z,32.83
2017-10-16T15:15:14.589Z,33.25
2017-10-16T15:17:42.185Z,32.92
2017-10-16T15:20:09.787Z,31.92
2017-10-16T15:22:37.366Z,31.47
2017-10-16T15:25:05.019Z,31.22
2017-10-16T15:27:32.559Z,30.65
2017-10-16T15:30:00.084Z,30.06
2017-10-16T15:32:28.052Z,29.68
2017-10-16T15:34:55.715Z,29.43
2017-10-16T15:37:23.280Z,29.95
2017-10-16T15:39:51.062Z,30.13
2017-10-16T15:42:19.927Z,30.73
2017-10-16T15:44:47.495Z,31.31
2017-10-16T15:47:16.380Z,31.58
2017-10-16T15:49:44.038Z,32.24
2017-10-16T15:52:11.597Z,32.27
2017-10-16T15:54:39.451Z,32.88
2017-10-16T15:57:07.126Z,33.02
2017-10-16T15:59:34.813Z,33.40
2017-10-16T16:02:03.268Z,33.66
2017-10-16T16:04:30.899Z,34.21
2017-10-16T16:06:59.246Z,34.78
2017-10-16T16:09:27.481Z,35.58
2017-10-16T16:11:55.038Z,36.03
2017-10-16T16:14:22.814Z,36.66
2017-10-16T16:16:50.720Z,37.27
2017-10-16T16:19:18.538Z,37.72
2017-10-16T16:21:46.424Z,38.34
2017-10-16T16:24:14.271Z,38.66
2017-10-16T16:26:41.998Z,39.39
2017-10-16T16:29:09.565Z,39.97
2017-10-16T16:31:37.470Z,40.80
2017-10-16T16:34:05.227Z,41.42
2017-10-16T16:36:32.885Z,41.89
2017-10-16T16:39:00.884Z,42.29
2017-10-16T16:41:28.619Z,42.69
2017-10-16T16:43:56.404Z,42.58
2017-10-16T16:46:24.143Z,42.73
2017-10-16T16:48:51.814Z,43.48
2017-10-16T16:51:19.468Z,42.83
2017-10-16T16:53:47.542Z,43.01
2017-10-16T16:56:16.144Z,43.10
2017-10-16T16:58:44.502Z,43.51
2017-10-16T17:01:12.516Z,43.96
2017-10-16T17:03:40.455Z,45.37
2017-10-16T17:06:08.224Z,46.10
2017-10-16T17:08:36.501Z,46.99
2017-10-16T17:11:04.528Z,46.53
2017-10-16T17:13:33.244Z,46.42
2017-10-16T17:16:01.631Z,45.93
2017-10-16T17:18:29.487Z,45.76
2017-10-16T17:20:58.269Z,46.69
2017-10-16T17:23:26.340Z,46.84
2017-10-16T17:25:54.317Z,46.47
2017-10-16T17:28:22.278Z,46.93
2017-10-16T17:30:50.616Z,47.64
2017-10-16T17:33:18.932Z,48.37
2017-10-16T17:35:46.770Z,49.05
2017-10-16T17:38:14.579Z,49.94
2017-10-16T17:40:42.533Z,50.11
2017-10-16T17:43:10.421Z,51.59
2017-10-16T17:45:38.468Z,51.16
2017-10-16T17:48:07.277Z,51.58
2017-10-16T17:50:35.745Z,52.16
2017-10-16T17:53:03.706Z,52.30
2017-10-16T17:55:31.674Z,52.87
2017-10-16T17:58:00.157Z,53.21
2017-10-16T18:00:28.159Z,52.93
2017-10-16T18:02:56.093Z,54.29
2017-10-16T18:05:23.959Z,54.38
2017-10-16T18:07:52.051Z,54.24
2017-10-16T18:10:20.001Z,54.13
2017-10-16T18:12:47.867Z,54.17
2017-10-16T18:15:15.917Z,54.54
2017-10-16T18:17:43.700Z,55.09
2017-10-16T18:20:12.284Z,54.78
2017-10-16T18:22:40.560Z,54.89
2017-10-16T18:25:08.462Z,55.18
2017-10-16T18:27:36.702Z,55.29
2017-10-16T18:30:06.104Z,55.22
2017-10-16T18:32:34.763Z,55.30
2017-10-16T18:35:03.855Z,55.55
2017-10-16T18:37:31.922Z,55.55
2017-10-16T18:39:59.823Z,55.40
2017-10-16T18:42:27.741Z,55.27
2017-10-16T18:44:55.982Z,55.77
2017-10-16T18:47:23.833Z,55.61
2017-10-16T18:49:51.699Z,55.53
2017-10-16T18:52:20.691Z,55.26
2017-10-16T18:54:49.172Z,55.85
2017-10-16T18:57:17.109Z,56.91
2017-10-16T18:59:46.360Z,56.65
2017-10-16T19:02:14.432Z,57.54
2017-10-16T19:04:42.276Z,57.94
2017-10-16T19:07:10.401Z,57.37
2017-10-16T19:09:38.768Z,57.77
2017-10-16T19:12:06.796Z,58.01
2017-10-16T19:14:35.381Z,58.09
2017-10-16T19:17:04.272Z,59.51
2017-10-16T19:19:32.443Z,60.41
2017-10-16T19:22:00.617Z,60.54
2017-10-16T19:24:29.099Z,59.39
2017-10-16T19:26:56.964Z,58.88
2017-10-16T19:29:25.217Z,59.64
2017-10-16T19:31:53.312Z,59.87
2017-10-16T19:34:21.139Z,59.85
2017-10-16T19:36:49.354Z,60.72
2017-10-16T19:39:17.221Z,61.18
2017-10-16T19:41:45.290Z,62.36
2017-10-16T19:44:13.438Z,61.61
2017-10-16T19:46:41.540Z,62.61
2017-10-16T19:49:09.508Z,61.80
2017-10-16T19:51:37.677Z,62.27
2017-10-16T19:54:05.544Z,61.41
2017-10-16T19:56:33.409Z,61.39
2017-10-16T19:59:01.685Z,61.89
2017-10-16T20:01:30.449Z,62.25
2017-10-16T20:03:58.338Z,63.06
2017-10-16T20:06:26.513Z,62.68
2017-10-16T20:08:55.120Z,63.31
2017-10-16T20:11:23.168Z,63.29
2017-10-16T20:13:51.342Z,62.84
2017-10-16T20:16:19.310Z,63.39
2017-10-16T20:18:47.380Z,63.54
2017-10-16T20:21:15.457Z,63.81
2017-10-16T20:23:43.276Z,63.61
2017-10-16T20:26:11.287Z,64.20
2017-10-16T20:28:39.466Z,64.65
2017-10-16T20:31:07.453Z,64.53
2017-10-16T20:33:35.500Z,64.70
2017-10-16T20:36:03.469Z,63.88
2017-10-16T20:38:31.223Z,64.53
2017-10-16T20:40:59.104Z,63.90
2017-10-16T20:43:27.437Z,63.82
2017-10-16T20:45:56.266Z,63.56
2017-10-16T20:48:24.143Z,63.33
2017-10-16T20:50:52.101Z,63.23
2017-10-16T20:53:19.862Z,63.59
2017-10-16T20:55:47.937Z,64.42
2017-10-16T20:58:16.211Z,63.85
2017-10-16T21:00:44.180Z,63.73
2017-10-16T21:03:11.947Z,63.06
2017-10-16T21:05:39.678Z,62.73
2017-10-16T21:08:07.371Z,63.10
2017-10-16T21:10:35.238Z,62.26
2017-10-16T21:13:03.205Z,62.07
2017-10-16T21:15:30.788Z,61.81
2017-10-16T21:17:58.447Z,61.18
2017-10-16T21:20:26.318Z,60.74
2017-10-16T21:22:53.891Z,60.93
2017-10-16T21:25:21.675Z,60.60
2017-10-16T21:27:49.505Z,60.80
2017-10-16T21:30:17.041Z,61.64
2017-10-16T21:32:44.701Z,61.14
2017-10-16T21:35:12.312Z,61.99
2017-10-16T21:37:39.935Z,61.84
2017-10-16T21:40:07.455Z,62.09
2017-10-16T21:42:35.395Z,62.65
2017-10-16T21:45:06.704Z,62.50
2017-10-16T21:47:34.235Z,62.61
2017-10-16T21:50:02.003Z,62.82
2017-10-16T21:52:29.628Z,62.59
2017-10-16T21:54:57.326Z,62.57
2017-10-16T21:57:25.194Z,63.04
2017-10-16T21:59:52.760Z,63.01
2017-10-16T22:02:20.279Z,62.59
2017-10-16T22:04:48.072Z,62.86
2017-10-16T22:07:15.615Z,63.03
2017-10-16T22:09:43.143Z,63.54
2017-10-16T22:12:10.854Z,62.65
2017-10-16T22:14:38.376Z,63.06
2017-10-16T22:17:05.924Z,63.23
2017-10-16T22:19:33.734Z,63.47
2017-10-16T22:22:01.319Z,63.23
2017-10-16T22:24:29.280Z,63.03
2017-10-16T22:26:56.933Z,63.82
2017-10-16T22:29:24.461Z,64.39
2017-10-16T22:31:51.990Z,64.30
2017-10-16T22:34:19.703Z,63.12
2017-10-16T22:36:47.228Z,63.02
2017-10-16T22:39:14.771Z,62.44
2017-10-16T22:41:42.554Z,62.12
2017-10-16T22:44:10.084Z,62.53
2017-10-16T22:46:37.615Z,62.59
2017-10-16T22:49:05.467Z,62.39
2017-10-16T22:51:32.992Z,61.71
2017-10-16T22:57:05.233Z,62.14
2017-10-16T22:59:32.979Z,61.34
2017-10-16T23:02:00.507Z,61.69
2017-10-16T23:04:28.064Z,61.84
2017-10-16T23:06:55.859Z,61.54
2017-10-16T23:09:23.419Z,61.19
2017-10-16T23:11:50.940Z,60.65
2017-10-16T23:14:18.513Z,60.56
2017-10-16T23:16:46.035Z,60.42
2017-10-16T23:19:13.590Z,60.21
2017-10-16T23:21:41.244Z,59.97
2017-10-16T23:24:08.895Z,59.54
2017-10-16T23:26:36.411Z,59.16
2017-10-16T23:29:04.220Z,59.65
2017-10-16T23:31:31.759Z,59.31
2017-10-16T23:33:59.275Z,58.97
2017-10-16T23:36:27.119Z,58.82
2017-10-16T23:38:54.744Z,58.52
2017-10-16T23:41:22.835Z,58.57
2017-10-16T23:43:50.681Z,58.45
2017-10-16T23:46:18.216Z,58.25
2017-10-16T23:48:45.731Z,59.01
2017-10-16T23:51:13.432Z,58.91
2017-10-16T23:53:40.955Z,58.45
2017-10-16T23:56:08.479Z,58.56
2017-10-16T23:58:36.156Z,59.08
